Time;durP1;ratioP1;P1;durP2;ratioP2;P2;SDS_P1;SDS_P2;PMS_P1;PMS_P2;Temp;Humidity;BMP_temperature;BMP_pressure;BME280_temperature;BME280_humidity;BME280_pressure;Samples;Min_cycle;Max_cycle;Signal;HPM_P1;HPM_P2
2021/12/07 00:00:58;;;;;;;12.30;2.17;;;4.70;82.40;;;;;;5078503;28;20132;-90
2021/12/07 00:03:27;;;;;;;12.32;2.03;;;4.70;82.30;;;;;;5076851;28;20483;-89
2021/12/07 00:05:54;;;;;;;19.85;2.35;;;4.60;82.30;;;;;;5073693;28;20044;-89
2021/12/07 00:08:22;;;;;;;11.70;1.80;;;4.60;82.30;;;;;;5070366;28;20128;-91
2021/12/07 00:10:50;;;;;;;14.85;2.67;;;4.60;82.20;;;;;;5072565;28;20131;-91
2021/12/07 00:13:19;;;;;;;11.48;1.98;;;4.60;82.20;;;;;;5074536;28;20058;-92
2021/12/07 00:15:47;;;;;;;13.25;2.30;;;4.60;82.20;;;;;;5071692;28;20505;-93
2021/12/07 00:18:14;;;;;;;9.43;2.03;;;4.60;82.10;;;;;;5072829;28;20048;-92
2021/12/07 00:20:41;;;;;;;14.43;2.03;;;4.60;82.10;;;;;;5072360;28;20084;-90
2021/12/07 00:23:09;;;;;;;11.75;2.25;;;4.60;82.10;;;;;;5068883;28;20037;-89
2021/12/07 00:25:37;;;;;;;12.93;2.20;;;4.60;82.00;;;;;;5072867;28;20137;-89
2021/12/07 00:28:05;;;;;;;9.93;1.63;;;4.60;82.00;;;;;;5075440;28;20139;-90
2021/12/07 00:30:35;;;;;;;13.30;2.22;;;4.60;82.00;;;;;;5076428;28;20048;-88
2021/12/07 00:33:10;;;;;;;10.80;2.42;;;4.50;82.00;;;;;;5077000;28;20052;-89
2021/12/07 00:35:38;;;;;;;8.00;1.90;;;4.50;81.90;;;;;;5084853;28;20501;-89
2021/12/07 00:38:12;;;;;;;14.05;2.45;;;4.50;81.90;;;;;;5089191;28;20064;-90
2021/12/07 00:40:41;;;;;;;12.60;2.65;;;4.50;81.90;;;;;;5077004;28;20501;-90
2021/12/07 00:43:09;;;;;;;18.33;2.45;;;4.50;81.90;;;;;;5078739;28;20045;-89
2021/12/07 00:45:37;;;;;;;15.50;2.42;;;4.50;81.90;;;;;;5077383;28;20057;-90
2021/12/07 00:48:06;;;;;;;14.52;2.30;;;4.50;81.80;;;;;;5077440;28;20052;-90
2021/12/07 00:50:35;;;;;;;9.95;1.88;;;4.40;81.80;;;;;;5077101;28;20050;-89
2021/12/07 00:53:05;;;;;;;12.32;2.25;;;4.50;81.80;;;;;;5055952;28;20045;-88
2021/12/07 00:55:36;;;;;;;13.75;2.53;;;4.50;81.80;;;;;;5078415;28;20106;-90
2021/12/07 00:58:13;;;;;;;13.13;2.50;;;4.50;81.80;;;;;;5089043;28;20047;-90
2021/12/07 01:00:41;;;;;;;9.10;2.05;;;4.50;81.70;;;;;;5079536;28;20463;-89
2021/12/07 01:03:08;;;;;;;12.35;1.90;;;4.40;81.70;;;;;;5075954;28;20504;-88
2021/12/07 01:05:36;;;;;;;14.02;2.05;;;4.50;81.70;;;;;;5077058;28;20109;-90
2021/12/07 01:24:44;;;;;;;15.77;2.55;;;4.50;81.50;;;;;;5076574;28;20054;-90
2021/12/07 01:27:17;;;;;;;12.55;2.40;;;4.40;81.40;;;;;;5076590;28;20048;-89
2021/12/07 01:29:54;;;;;;;13.13;2.58;;;4.40;81.40;;;;;;5075300;28;20048;-89
2021/12/07 01:53:14;;;;;;;16.58;2.58;;;4.40;81.20;;;;;;5073366;28;20049;-90
2021/12/07 02:01:09;;;;;;;11.90;1.63;;;4.30;81.20;;;;;;5077506;28;20049;-88
2021/12/07 02:03:38;;;;;;;10.50;2.25;;;4.30;81.20;;;;;;5073962;28;20044;-90
2021/12/07 02:06:07;;;;;;;12.25;2.08;;;4.30;81.20;;;;;;5073912;28;20282;-89
2021/12/07 02:08:34;;;;;;;12.70;2.17;;;4.30;81.10;;;;;;5074578;28;20530;-90
2021/12/07 02:11:03;;;;;;;12.05;1.90;;;4.30;81.10;;;;;;5054791;28;20048;-88
2021/12/07 02:15:58;;;;;;;12.35;2.13;;;4.30;81.10;;;;;;5076337;28;20173;-91
2021/12/07 02:18:25;;;;;;;13.38;2.55;;;4.30;81.10;;;;;;5074600;28;20041;-91
2021/12/07 02:20:53;;;;;;;12.05;1.92;;;4.30;81.10;;;;;;5074837;28;20054;-89
2021/12/07 02:23:20;;;;;;;10.52;1.63;;;4.30;81.10;;;;;;5072112;28;20051;-88
2021/12/07 02:25:47;;;;;;;16.52;2.45;;;4.20;81.10;;;;;;5073973;28;20068;-91
2021/12/07 02:28:16;;;;;;;12.23;1.90;;;4.20;81.20;;;;;;5075686;28;20573;-88
2021/12/07 02:30:44;;;;;;;14.35;2.28;;;4.20;81.20;;;;;;5072278;28;20045;-89
2021/12/07 02:33:11;;;;;;;11.27;1.80;;;4.20;81.20;;;;;;5074397;28;20055;-90
2021/12/07 02:35:39;;;;;;;12.00;1.92;;;4.20;81.10;;;;;;5075309;28;20051;-88
2021/12/07 02:38:06;;;;;;;11.70;2.10;;;4.20;81.20;;;;;;5071250;28;20051;-90
2021/12/07 02:40:33;;;;;;;14.07;2.30;;;4.20;81.20;;;;;;5075087;28;20059;-89
2021/12/07 02:43:01;;;;;;;13.07;1.90;;;4.10;81.20;;;;;;5074568;28;20066;-88
2021/12/07 02:45:28;;;;;;;9.80;1.70;;;4.10;81.10;;;;;;5073387;28;20060;-90
2021/12/07 02:47:55;;;;;;;8.50;1.85;;;4.10;81.10;;;;;;5075219;28;20469;-89
2021/12/07 02:50:22;;;;;;;11.80;2.15;;;4.00;81.10;;;;;;5070162;28;20049;-90
2021/12/07 02:52:49;;;;;;;11.90;2.20;;;4.10;81.10;;;;;;5086685;28;20411;-90
2021/12/07 02:55:17;;;;;;;9.75;1.80;;;4.10;81.10;;;;;;5077109;28;20045;-92
2021/12/07 02:57:45;;;;;;;11.95;2.17;;;4.00;81.10;;;;;;5075003;28;20059;-91
2021/12/07 03:00:19;;;;;;;9.13;1.85;;;4.00;81.10;;;;;;5074761;28;20048;-90
2021/12/07 03:02:54;;;;;;;;;;;4.00;81.10;;;;;;5073975;28;20557;-88
2021/12/07 03:26:50;;;;;;;7.45;1.75;;;3.90;81.40;;;;;;5072143;28;20382;-90
2021/12/07 03:29:18;;;;;;;8.88;2.00;;;3.80;81.40;;;;;;5070737;28;20052;-89
2021/12/07 03:31:46;;;;;;;11.30;2.72;;;3.80;81.40;;;;;;5070930;28;20059;-89
2021/12/07 03:34:13;;;;;;;13.55;2.45;;;3.80;81.40;;;;;;5074457;28;20040;-90
2021/12/07 03:36:40;;;;;;;9.00;1.88;;;3.70;81.40;;;;;;5073838;28;20059;-89
2021/12/07 03:39:08;;;;;;;13.00;2.00;;;3.70;81.40;;;;;;5073984;28;20042;-89
2021/12/07 03:41:36;;;;;;;11.90;2.92;;;3.70;81.40;;;;;;5074060;28;20420;-89
2021/12/07 03:44:03;;;;;;;10.40;1.98;;;3.70;81.40;;;;;;5069500;28;20041;-88
2021/12/07 03:46:31;;;;;;;8.73;2.03;;;3.70;81.40;;;;;;5075541;28;20501;-89
2021/12/07 03:48:58;;;;;;;10.55;2.30;;;3.70;81.40;;;;;;5073351;28;20080;-90
2021/12/07 03:51:25;;;;;;;10.30;2.20;;;3.70;81.40;;;;;;5074099;28;20436;-91
2021/12/07 03:53:52;;;;;;;10.65;1.85;;;3.70;81.40;;;;;;5073993;28;20055;-90
2021/12/07 03:56:20;;;;;;;8.48;1.98;;;3.60;81.40;;;;;;5070353;28;20045;-90
2021/12/07 03:58:47;;;;;;;10.57;2.30;;;3.60;81.40;;;;;;5071117;28;20505;-90
2021/12/07 04:01:14;;;;;;;9.18;2.30;;;3.60;81.40;;;;;;5075041;28;20048;-90
2021/12/07 04:03:43;;;;;;;15.65;2.50;;;3.60;81.50;;;;;;5073647;28;20424;-90
2021/12/07 04:06:10;;;;;;;8.85;2.72;;;3.50;81.40;;;;;;5073978;28;20047;-89
2021/12/07 04:08:41;;;;;;;14.05;2.63;;;3.50;81.50;;;;;;5074003;28;20056;-90
2021/12/07 04:11:08;;;;;;;12.63;2.75;;;3.50;81.50;;;;;;5070305;28;20047;-88
2021/12/07 04:13:35;;;;;;;10.18;2.80;;;3.50;81.40;;;;;;5074305;28;20691;-89
2021/12/07 04:16:08;;;;;;;11.10;2.60;;;3.40;81.50;;;;;;5074815;28;20109;-89
2021/12/07 04:18:35;;;;;;;10.82;3.25;;;3.50;81.50;;;;;;5071483;28;20059;-91
2021/12/07 04:21:03;;;;;;;12.90;3.63;;;3.40;81.50;;;;;;5072654;28;20424;-91
2021/12/07 04:23:32;;;;;;;19.77;4.30;;;3.40;81.50;;;;;;5073499;28;20409;-90
2021/12/07 04:26:03;;;;;;;17.08;4.18;;;3.40;81.40;;;;;;5052452;28;20562;-90
2021/12/07 04:28:30;;;;;;;16.48;5.78;;;3.40;81.50;;;;;;5083458;28;20419;-91
2021/12/07 04:30:57;;;;;;;15.05;5.75;;;3.40;81.50;;;;;;5083247;28;20052;-90
2021/12/07 04:33:25;;;;;;;17.77;6.32;;;3.30;81.40;;;;;;5076511;28;20052;-91
2021/12/07 04:35:52;;;;;;;19.40;6.38;;;3.30;81.40;;;;;;5072591;28;20039;-90
2021/12/07 04:38:19;;;;;;;18.02;5.68;;;3.30;81.40;;;;;;5070801;28;20041;-90
2021/12/07 04:40:46;;;;;;;15.98;4.72;;;3.30;81.40;;;;;;5072260;28;20048;-91
2021/12/07 04:43:14;;;;;;;13.15;4.57;;;3.30;81.40;;;;;;5074153;28;20054;-90
2021/12/07 04:59:01;;;;;;;14.93;3.90;;;3.10;81.30;;;;;;5055489;28;20047;-91
2021/12/07 05:01:28;;;;;;;14.25;4.20;;;3.10;81.30;;;;;;5083744;28;20058;-92
2021/12/07 05:03:58;;;;;;;15.98;3.90;;;3.00;81.30;;;;;;5074741;28;20103;-91
2021/12/07 05:06:29;;;;;;;14.65;4.03;;;3.00;81.30;;;;;;5074252;28;20040;-90
2021/12/07 05:09:20;;;;;;;16.33;3.85;;;3.00;81.30;;;;;;5073505;28;20102;-91
2021/12/07 05:12:04;;;;;;;12.77;3.58;;;2.90;81.30;;;;;;5062837;28;20049;-94
2021/12/07 05:14:34;;;;;;;12.88;3.72;;;2.90;81.40;;;;;;5066502;28;20059;-91
2021/12/07 05:18:01;;;;;;;14.02;3.42;;;2.90;81.40;;;;;;5056606;28;20036;-90
2021/12/07 05:39:01;;;;;;;12.00;2.90;;;2.80;81.60;;;;;;5077521;28;20054;-91
2021/12/07 05:41:28;;;;;;;9.45;2.63;;;2.80;81.60;;;;;;5075652;28;20052;-92
2021/12/07 05:43:56;;;;;;;9.85;2.40;;;2.80;81.70;;;;;;5072367;28;20102;-92
2021/12/07 05:46:23;;;;;;;6.70;2.30;;;2.80;81.70;;;;;;5079091;28;20053;-91
2021/12/07 05:48:51;;;;;;;9.43;2.70;;;2.80;81.70;;;;;;5077577;28;20056;-91
2021/12/07 05:51:18;;;;;;;11.10;3.33;;;2.80;81.70;;;;;;5075695;28;20045;-91
2021/12/07 05:53:45;;;;;;;11.98;2.83;;;2.80;81.70;;;;;;5074650;28;20055;-91
2021/12/07 05:56:12;;;;;;;10.77;2.70;;;2.80;81.70;;;;;;5074133;28;20047;-91
2021/12/07 05:58:39;;;;;;;10.52;2.88;;;2.70;81.70;;;;;;5076255;28;20056;-92
2021/12/07 06:01:06;;;;;;;9.60;2.50;;;2.70;81.70;;;;;;5077577;28;20044;-91
2021/12/07 06:03:34;;;;;;;12.05;2.75;;;2.70;81.70;;;;;;5084936;28;20423;-90
2021/12/07 06:06:04;;;;;;;11.65;2.90;;;2.70;81.70;;;;;;5076983;28;20040;-91
2021/12/07 06:08:31;;;;;;;10.23;2.65;;;2.70;81.70;;;;;;5084644;28;20056;-91
2021/12/07 06:10:59;;;;;;;11.43;2.38;;;2.70;81.70;;;;;;5088260;28;20049;-91
2021/12/07 06:13:26;;;;;;;9.80;3.00;;;2.70;81.80;;;;;;5078466;28;20459;-91
2021/12/07 06:15:53;;;;;;;12.95;3.17;;;2.70;81.80;;;;;;5073827;28;20131;-92
2021/12/07 06:18:20;;;;;;;11.93;2.60;;;2.70;81.80;;;;;;5074956;28;20060;-91
2021/12/07 06:20:47;;;;;;;8.95;2.45;;;2.70;81.80;;;;;;5076203;28;20446;-90
2021/12/07 06:23:17;;;;;;;12.32;2.67;;;2.70;81.80;;;;;;5070152;28;20053;-90
2021/12/07 06:25:46;;;;;;;6.80;2.30;;;2.70;81.80;;;;;;5073938;28;20056;-90
2021/12/07 06:28:13;;;;;;;6.20;1.83;;;2.60;81.80;;;;;;5080830;28;20475;-90
2021/12/07 06:30:46;;;;;;;10.73;2.75;;;2.70;81.80;;;;;;5080048;28;20044;-89
2021/12/07 06:33:17;;;;;;;9.70;3.08;;;2.70;81.80;;;;;;5080092;28;20048;-89
2021/12/07 06:35:46;;;;;;;13.05;2.25;;;2.70;81.90;;;;;;5074584;28;20171;-91
2021/12/07 06:38:13;;;;;;;7.85;2.97;;;2.60;81.80;;;;;;5072491;28;20040;-89
2021/12/07 06:40:40;;;;;;;8.45;2.50;;;2.60;81.80;;;;;;5073443;28;20048;-90
2021/12/07 06:43:07;;;;;;;10.82;2.97;;;2.60;81.90;;;;;;5073793;28;20151;-91
2021/12/07 06:45:34;;;;;;;11.63;2.90;;;2.60;81.90;;;;;;5075208;28;20049;-92
2021/12/07 06:48:02;;;;;;;11.40;3.05;;;2.60;81.90;;;;;;5073938;28;20051;-90
2021/12/07 06:50:29;;;;;;;9.00;2.50;;;2.60;81.90;;;;;;5072510;28;20048;-90
2021/12/07 06:52:56;;;;;;;15.60;3.70;;;2.60;81.90;;;;;;5070958;28;20047;-89
2021/12/07 06:55:24;;;;;;;7.38;2.45;;;2.60;81.90;;;;;;5076538;28;20124;-89
2021/12/07 06:57:51;;;;;;;11.55;2.92;;;2.60;81.90;;;;;;5074597;28;20056;-91
2021/12/07 07:00:19;;;;;;;16.70;3.67;;;2.60;82.00;;;;;;5076611;28;20498;-90
2021/12/07 07:02:46;;;;;;;11.35;2.78;;;2.60;82.00;;;;;;5083624;28;20719;-89
2021/12/07 07:05:15;;;;;;;12.27;2.70;;;2.60;82.00;;;;;;5071986;28;20048;-89
2021/12/07 07:07:43;;;;;;;8.45;2.40;;;2.60;82.00;;;;;;5073635;28;20070;-90
2021/12/07 07:10:14;;;;;;;11.02;2.90;;;2.60;82.00;;;;;;5074254;28;20045;-90
2021/12/07 07:12:43;;;;;;;17.38;3.45;;;2.60;82.00;;;;;;5074207;28;20053;-91
2021/12/07 07:15:10;;;;;;;10.63;2.83;;;2.60;82.10;;;;;;5073528;28;20047;-90
2021/12/07 07:17:38;;;;;;;12.35;3.00;;;2.60;82.10;;;;;;5073535;28;20101;-89
2021/12/07 07:20:08;;;;;;;11.98;3.08;;;2.60;82.10;;;;;;5070214;28;20075;-89
2021/12/07 07:22:35;;;;;;;16.70;3.13;;;2.60;82.10;;;;;;5071568;28;20066;-90
2021/12/07 07:25:04;;;;;;;11.15;2.72;;;2.60;82.20;;;;;;5073786;28;20132;-90
2021/12/07 07:27:31;;;;;;;12.75;3.35;;;2.60;82.20;;;;;;5072987;28;20426;-90
2021/12/07 07:29:58;;;;;;;17.25;3.13;;;2.60;82.20;;;;;;5074408;28;20040;-90
2021/12/07 07:32:25;;;;;;;18.15;3.10;;;2.60;82.30;;;;;;5073235;28;20419;-89
2021/12/07 07:34:52;;;;;;;8.43;2.78;;;2.60;82.30;;;;;;5070783;28;20063;-91
2021/12/07 07:37:19;;;;;;;12.88;3.33;;;2.60;82.30;;;;;;5076152;28;20412;-89
2021/12/07 07:39:46;;;;;;;11.27;2.40;;;2.60;82.40;;;;;;5074167;28;20053;-90
2021/12/07 07:42:13;;;;;;;12.38;3.03;;;2.60;82.40;;;;;;5074075;28;20412;-89
2021/12/07 07:44:41;;;;;;;10.55;2.20;;;2.60;82.50;;;;;;5071866;28;20416;-90
2021/12/07 07:47:08;;;;;;;9.48;2.90;;;2.60;82.50;;;;;;5070464;28;20122;-90
2021/12/07 07:49:35;;;;;;;12.45;3.25;;;2.60;82.50;;;;;;5074590;28;20128;-90
2021/12/07 07:52:02;;;;;;;15.23;3.70;;;2.60;82.60;;;;;;5073236;28;20390;-90
2021/12/07 07:54:29;;;;;;;11.57;2.67;;;2.70;82.60;;;;;;5074118;28;20561;-89
2021/12/07 07:56:57;;;;;;;11.30;2.50;;;2.70;82.70;;;;;;5073725;28;20048;-90
2021/12/07 07:59:24;;;;;;;12.25;2.55;;;2.70;82.70;;;;;;5072477;28;20048;-89
2021/12/07 08:01:51;;;;;;;9.18;2.67;;;2.70;82.80;;;;;;5070853;28;20165;-90
2021/12/07 08:04:19;;;;;;;11.95;3.13;;;2.70;82.80;;;;;;5075908;28;20501;-91
2021/12/07 08:06:46;;;;;;;11.57;2.90;;;2.70;82.90;;;;;;5071723;28;20045;-89
2021/12/07 08:09:13;;;;;;;10.30;2.63;;;2.70;82.90;;;;;;5072352;28;20076;-90
2021/12/07 08:11:41;;;;;;;11.75;3.05;;;2.70;82.90;;;;;;5072338;28;20048;-90
2021/12/07 08:14:08;;;;;;;12.40;2.92;;;2.70;82.90;;;;;;5051619;28;20065;-89
2021/12/07 08:16:35;;;;;;;10.25;2.63;;;2.70;83.00;;;;;;5073582;28;20565;-91
2021/12/07 08:19:03;;;;;;;10.77;3.00;;;2.70;83.00;;;;;;5073807;28;20520;-90
2021/12/07 08:21:30;;;;;;;15.18;2.80;;;2.70;83.10;;;;;;5073248;28;20054;-90
2021/12/07 08:23:57;;;;;;;11.20;2.80;;;2.70;83.10;;;;;;5073056;28;20056;-92
2021/12/07 08:26:25;;;;;;;11.85;3.30;;;2.70;83.20;;;;;;5073076;28;20127;-91
2021/12/07 08:28:55;;;;;;;11.43;3.35;;;2.70;83.30;;;;;;5070536;28;20056;-91
2021/12/07 08:31:23;;;;;;;13.00;3.65;;;2.70;83.30;;;;;;5075333;28;20140;-91
2021/12/07 08:33:51;;;;;;;12.13;3.72;;;2.70;83.30;;;;;;5075042;28;20532;-91
2021/12/07 08:36:18;;;;;;;12.57;2.88;;;2.80;83.40;;;;;;5075172;28;20519;-90
2021/12/07 08:38:47;;;;;;;15.07;3.72;;;2.80;83.40;;;;;;5070642;28;20052;-90
2021/12/07 08:41:15;;;;;;;10.38;3.00;;;2.80;83.40;;;;;;5071483;28;20049;-92
2021/12/07 08:43:42;;;;;;;13.45;4.15;;;2.80;83.50;;;;;;5074653;28;20059;-92
2021/12/07 08:46:12;;;;;;;15.30;5.00;;;2.80;83.50;;;;;;5077022;28;20086;-91
2021/12/07 08:48:41;;;;;;;13.38;4.60;;;2.80;83.60;;;;;;5072420;28;20075;-92
2021/12/07 08:51:11;;;;;;;14.68;4.53;;;2.90;83.60;;;;;;5080808;28;20123;-91
2021/12/07 08:53:47;;;;;;;13.65;4.25;;;2.80;83.60;;;;;;5080540;28;20054;-92
2021/12/07 09:01:48;;;;;;;18.83;5.78;;;2.80;83.60;;;;;;5078661;28;20521;-91
2021/12/07 09:04:17;;;;;;;21.13;5.40;;;2.80;83.70;;;;;;5083019;28;20040;-92
2021/12/07 09:06:45;;;;;;;15.02;4.88;;;2.90;83.70;;;;;;5077124;28;20513;-91
2021/12/07 09:09:13;;;;;;;13.10;4.60;;;2.90;83.70;;;;;;5079885;28;20067;-92
2021/12/07 09:11:42;;;;;;;15.45;3.95;;;2.90;83.80;;;;;;5080920;28;20046;-91
2021/12/07 09:14:11;;;;;;;16.88;4.22;;;2.90;83.90;;;;;;5077346;28;20051;-91
2021/12/07 09:16:38;;;;;;;10.60;4.15;;;2.90;83.90;;;;;;5079982;28;20064;-92
2021/12/07 09:19:05;;;;;;;12.40;4.15;;;2.90;84.00;;;;;;5090954;28;20135;-90
2021/12/07 09:21:33;;;;;;;13.57;4.35;;;2.90;84.00;;;;;;5081754;28;20049;-80
2021/12/07 09:24:01;;;;;;;14.02;4.18;;;2.90;84.10;;;;;;5076700;28;20047;-80
2021/12/07 09:26:28;;;;;;;18.48;4.80;;;3.00;84.10;;;;;;5076658;28;20070;-81
2021/12/07 09:28:55;;;;;;;17.70;4.28;;;3.00;84.20;;;;;;5073591;28;20082;-80
2021/12/07 09:31:23;;;;;;;15.52;3.67;;;3.00;84.30;;;;;;5079208;28;20055;-81
2021/12/07 09:33:51;;;;;;;13.88;3.80;;;3.00;84.30;;;;;;5077286;28;20080;-81
2021/12/07 09:36:18;;;;;;;11.88;3.65;;;3.00;84.40;;;;;;5077564;28;20037;-81
2021/12/07 09:38:46;;;;;;;13.85;3.60;;;3.10;84.40;;;;;;5076597;28;20551;-81
2021/12/07 09:41:15;;;;;;;14.85;3.75;;;3.20;84.40;;;;;;5074176;28;20043;-81
2021/12/07 09:43:42;;;;;;;15.85;4.03;;;3.20;84.50;;;;;;5076210;28;20044;-81
2021/12/07 09:46:11;;;;;;;17.05;4.20;;;3.20;84.50;;;;;;5077804;28;20048;-81
2021/12/07 09:48:40;;;;;;;8.00;2.85;;;3.20;84.60;;;;;;5076896;28;20048;-81
2021/12/07 09:51:09;;;;;;;16.25;3.28;;;3.30;84.60;;;;;;5077032;28;20500;-81
2021/12/07 09:53:37;;;;;;;14.07;3.33;;;3.30;84.70;;;;;;5076442;28;20134;-81
2021/12/07 09:56:06;;;;;;;12.48;3.30;;;3.40;84.70;;;;;;5072780;28;20048;-81
2021/12/07 09:58:34;;;;;;;9.07;3.50;;;3.40;84.70;;;;;;5077554;28;20505;-81
2021/12/07 10:01:05;;;;;;;16.40;3.47;;;3.40;84.80;;;;;;5074892;28;20056;-81
2021/12/07 10:03:33;;;;;;;16.67;3.08;;;3.40;84.80;;;;;;5076874;28;20098;-81
2021/12/07 10:06:01;;;;;;;20.13;3.97;;;3.50;84.80;;;;;;5076388;28;20501;-81
2021/12/07 10:08:28;;;;;;;14.70;2.97;;;3.50;84.90;;;;;;5075448;28;20048;-81
2021/12/07 10:10:59;;;;;;;15.38;4.63;;;3.50;84.90;;;;;;5072790;28;20135;-81
2021/12/07 10:13:28;;;;;;;19.63;3.65;;;3.60;85.00;;;;;;5078592;28;20083;-81
2021/12/07 10:15:57;;;;;;;19.52;3.50;;;3.70;85.10;;;;;;5076189;28;20044;-81
2021/12/07 10:18:27;;;;;;;14.88;3.15;;;3.70;85.20;;;;;;5076631;28;20052;-81
2021/12/07 10:21:23;;;;;;;19.67;3.63;;;3.80;85.30;;;;;;5075913;28;20094;-81
2021/12/07 10:24:02;;;;;;;19.35;3.25;;;3.90;85.30;;;;;;5076364;28;20051;-81
2021/12/07 10:26:32;;;;;;;16.50;3.97;;;4.00;85.30;;;;;;5075515;28;20052;-81
2021/12/07 10:29:15;;;;;;;18.77;3.72;;;4.10;85.30;;;;;;5071650;28;20059;-81
2021/12/07 10:31:51;;;;;;;11.68;3.58;;;4.20;85.40;;;;;;5086506;28;20103;-81
2021/12/07 10:34:25;;;;;;;18.30;3.30;;;4.20;85.40;;;;;;5078294;28;20066;-81
2021/12/07 10:37:15;;;;;;;13.48;2.90;;;4.30;85.40;;;;;;5075620;28;20048;-81
2021/12/07 10:39:51;;;;;;;14.65;3.13;;;4.40;85.40;;;;;;5076006;28;20083;-80
2021/12/07 10:42:30;;;;;;;16.92;3.30;;;4.50;85.40;;;;;;5076050;28;20051;-80
2021/12/07 10:45:03;;;;;;;15.50;3.50;;;4.50;85.40;;;;;;5074376;28;20087;-81
2021/12/07 10:47:30;;;;;;;18.95;3.72;;;4.60;85.30;;;;;;5075693;28;20054;-82
2021/12/07 10:49:59;;;;;;;15.88;3.55;;;4.60;85.30;;;;;;5071485;28;20052;-82
2021/12/07 10:52:33;;;;;;;18.02;4.07;;;4.70;85.30;;;;;;5077429;28;20076;-82
2021/12/07 10:55:09;;;;;;;13.70;3.85;;;4.70;85.30;;;;;;5076262;28;20059;-81
2021/12/07 10:57:38;;;;;;;19.27;4.35;;;4.70;85.30;;;;;;5075992;28;20044;-81
2021/12/07 11:00:09;;;;;;;16.90;3.85;;;4.70;85.20;;;;;;5075283;28;20410;-81
2021/12/07 11:02:39;;;;;;;17.30;3.25;;;4.80;85.20;;;;;;5075658;28;20054;-81
2021/12/07 11:05:15;;;;;;;15.85;4.05;;;4.80;85.20;;;;;;5070782;28;20056;-81
2021/12/07 11:07:42;;;;;;;18.73;4.03;;;4.80;85.10;;;;;;5074282;28;20132;-81
2021/12/07 11:10:39;;;;;;;19.30;3.75;;;4.80;85.10;;;;;;5076378;28;20052;-82
2021/12/07 11:15:52;;;;;;;12.80;4.28;;;4.80;85.00;;;;;;5075441;28;20131;-81
2021/12/07 11:18:24;;;;;;;13.80;4.80;;;4.80;85.00;;;;;;5075104;28;20467;-81
2021/12/07 11:20:57;;;;;;;22.30;5.50;;;4.80;85.00;;;;;;5075121;28;20040;-81
2021/12/07 11:23:31;;;;;;;16.67;5.03;;;4.80;85.00;;;;;;5073829;28;20056;-81
2021/12/07 11:31:20;;;;;;;14.52;4.85;;;4.90;85.10;;;;;;5075247;28;20045;-81
2021/12/07 11:33:50;;;;;;;16.73;4.63;;;4.90;85.10;;;;;;5074868;28;20053;-81
2021/12/07 11:36:22;;;;;;;18.95;5.18;;;4.90;85.10;;;;;;5074759;28;20043;-81
2021/12/07 11:38:51;;;;;;;17.05;4.60;;;4.90;85.10;;;;;;5074930;28;20048;-81
2021/12/07 11:41:32;;;;;;;17.27;4.38;;;4.90;85.10;;;;;;5072507;28;20055;-81
2021/12/07 11:44:06;;;;;;;17.13;5.00;;;4.90;85.10;;;;;;5069959;28;20254;-81
2021/12/07 11:46:35;;;;;;;;;;;4.90;85.10;;;;;;5085433;28;20048;-80
2021/12/07 11:49:23;;;;;;;16.88;4.68;;;4.90;85.10;;;;;;5073543;28;19921;-81
2021/12/07 11:51:54;;;;;;;22.08;4.68;;;4.90;85.10;;;;;;5074443;28;20045;-81
2021/12/07 11:54:27;;;;;;;13.93;4.88;;;5.00;85.10;;;;;;5074677;28;20045;-81
2021/12/07 11:56:56;;;;;;;19.45;5.40;;;5.00;85.10;;;;;;5074697;28;20135;-80
2021/12/07 11:59:23;;;;;;;20.00;5.18;;;5.00;85.10;;;;;;5072669;28;20053;-81
2021/12/07 12:01:52;;;;;;;21.08;5.25;;;5.00;85.20;;;;;;5071197;28;20044;-82
2021/12/07 12:04:21;;;;;;;25.10;5.47;;;5.00;85.20;;;;;;5076803;28;20083;-81
2021/12/07 12:06:50;;;;;;;16.33;4.90;;;5.00;85.20;;;;;;5074271;28;20046;-81
2021/12/07 12:09:18;;;;;;;18.35;5.43;;;5.10;85.20;;;;;;5074305;28;20128;-80
2021/12/07 12:12:00;;;;;;;24.83;5.10;;;5.20;85.20;;;;;;5074577;28;20048;-81
2021/12/07 12:14:40;;;;;;;18.95;4.55;;;5.10;85.20;;;;;;5073295;28;20040;-81
2021/12/07 12:17:27;;;;;;;16.83;4.65;;;5.20;85.20;;;;;;5055119;28;20054;-81
2021/12/07 12:20:12;;;;;;;13.98;4.75;;;5.20;85.20;;;;;;5070814;28;20140;-81
2021/12/07 12:22:54;;;;;;;18.92;5.50;;;5.20;85.20;;;;;;5083886;28;20130;-81
2021/12/07 12:25:23;;;;;;;23.50;5.50;;;5.20;85.10;;;;;;5075095;28;20058;-80
2021/12/07 12:27:53;;;;;;;25.83;6.15;;;5.30;85.20;;;;;;5074005;28;20513;-81
2021/12/07 12:30:25;;;;;;;25.55;6.47;;;5.30;85.20;;;;;;5074301;28;20048;-83
2021/12/07 12:32:56;;;;;;;20.80;5.28;;;5.40;85.20;;;;;;5073940;28;20397;-81
2021/12/07 12:35:47;;;;;;;17.52;5.13;;;5.40;85.10;;;;;;5072391;28;20050;-81
2021/12/07 12:38:19;;;;;;;18.42;5.10;;;5.40;85.10;;;;;;5057387;28;20098;-81
2021/12/07 12:41:08;;;;;;;15.70;4.82;;;5.40;85.10;;;;;;5072287;28;20048;-81
2021/12/07 12:43:52;;;;;;;23.67;6.28;;;5.40;85.00;;;;;;5074584;28;20055;-82
2021/12/07 12:46:21;;;;;;;;;;;5.40;85.00;;;;;;5075195;28;20135;-81
2021/12/07 12:48:54;;;;;;;21.60;6.03;;;5.50;85.00;;;;;;5074027;28;19974;-81
2021/12/07 12:51:25;;;;;;;14.10;5.40;;;5.50;84.90;;;;;;5073539;28;20090;-81
2021/12/07 12:53:53;;;;;;;16.77;6.30;;;5.50;84.90;;;;;;5074153;28;20427;-81
2021/12/07 12:56:30;;;;;;;15.60;5.88;;;5.50;84.80;;;;;;5072159;28;20040;-80
2021/12/07 12:59:02;;;;;;;20.38;6.35;;;5.50;84.80;;;;;;5070146;28;20049;-81
2021/12/07 13:01:37;;;;;;;17.75;6.07;;;5.60;84.70;;;;;;5082693;28;20158;-81
2021/12/07 13:04:21;;;;;;;18.08;6.20;;;5.60;84.70;;;;;;5073207;28;20052;-81
2021/12/07 13:06:54;;;;;;;17.92;6.78;;;5.50;84.60;;;;;;5073959;28;20071;-80
2021/12/07 13:09:34;;;;;;;17.27;6.40;;;5.60;84.50;;;;;;5073902;28;20091;-80
2021/12/07 13:12:03;;;;;;;21.00;8.68;;;5.60;84.50;;;;;;5073700;28;20048;-82
2021/12/07 13:14:38;;;;;;;13.70;6.97;;;5.60;84.40;;;;;;5073013;28;20466;-83
2021/12/07 13:17:19;;;;;;;19.17;8.02;;;5.60;84.40;;;;;;5053673;28;20424;-82
2021/12/07 13:20:08;;;;;;;21.50;7.10;;;5.50;84.30;;;;;;5071432;28;20052;-82
2021/12/07 13:22:36;;;;;;;18.00;7.28;;;5.60;84.30;;;;;;5083762;28;20048;-83
2021/12/07 13:25:25;;;;;;;16.40;7.47;;;5.50;84.20;;;;;;5073140;28;20049;-81
2021/12/07 13:28:11;;;;;;;19.58;7.88;;;5.50;84.10;;;;;;5073428;28;20052;-81
2021/12/07 13:30:41;;;;;;;15.77;7.10;;;5.50;84.10;;;;;;5073190;28;20059;-81
2021/12/07 13:33:14;;;;;;;15.20;7.30;;;5.50;84.00;;;;;;5073736;28;20041;-81
2021/12/07 13:35:43;;;;;;;16.08;7.72;;;5.50;84.00;;;;;;5077192;28;20044;-81
2021/12/07 13:38:15;;;;;;;22.42;7.88;;;5.50;84.00;;;;;;5073831;28;20135;-81
2021/12/07 13:40:42;;;;;;;22.02;7.45;;;5.50;83.90;;;;;;5076182;28;20056;-81
2021/12/07 13:43:09;;;;;;;16.02;7.10;;;5.50;84.00;;;;;;5078104;28;20040;-81
2021/12/07 13:45:36;;;;;;;16.40;7.35;;;5.40;84.00;;;;;;5076474;28;20063;-81
2021/12/07 13:48:04;;;;;;;16.20;7.05;;;5.40;84.00;;;;;;5077373;28;20086;-82
2021/12/07 13:50:32;;;;;;;19.00;6.45;;;5.40;84.00;;;;;;5076043;28;20059;-81
2021/12/07 13:53:00;;;;;;;13.30;7.35;;;5.40;84.00;;;;;;5072841;28;20523;-83
2021/12/07 13:55:32;;;;;;;20.00;6.88;;;5.40;84.00;;;;;;5079012;28;20052;-81
2021/12/07 13:58:02;;;;;;;19.65;6.57;;;5.40;84.00;;;;;;5076680;28;20048;-81
2021/12/07 14:00:32;;;;;;;16.55;6.63;;;5.40;84.00;;;;;;5076794;28;20044;-82
2021/12/07 14:03:05;;;;;;;19.85;6.28;;;5.40;84.00;;;;;;5076837;28;20044;-82
2021/12/07 14:05:38;;;;;;;;;;;5.40;84.10;;;;;;5076983;28;20135;-82
2021/12/07 14:08:06;;;;;;;;;;;5.40;84.10;;;;;;5057389;28;19921;-81
2021/12/07 14:10:34;;;;;;;;;;;5.40;84.10;;;;;;5078115;28;19924;-80
2021/12/07 14:13:04;;;;;;;;;;;5.40;84.20;;;;;;5075688;28;19920;-80
2021/12/07 14:15:34;;;;;;;;;;;5.40;84.20;;;;;;5077005;28;19935;-82
2021/12/07 14:18:04;;;;;;;;;;;5.40;84.20;;;;;;5076622;28;19924;-82
2021/12/07 14:20:45;;;;;;;;;;;5.40;84.30;;;;;;5076400;28;19936;-82
2021/12/07 14:23:15;;;;;;;;;;;5.40;84.30;;;;;;5059067;28;19928;-84
2021/12/07 14:25:46;;;;;;;;;;;5.40;84.30;;;;;;5075694;28;19920;-82
2021/12/07 14:28:28;;;;;;;;;;;5.40;84.30;;;;;;5091908;28;20308;-82
2021/12/07 14:31:15;;;;;;;;;;;5.40;84.30;;;;;;5091809;28;19967;-83
2021/12/07 14:33:47;;;;;;;;;;;5.40;84.40;;;;;;5076282;28;19920;-82
2021/12/07 14:36:16;;;;;;;;;;;5.40;84.40;;;;;;5076729;28;19927;-82
2021/12/07 14:38:45;;;;;;;;;;;5.40;84.40;;;;;;5076340;28;19946;-83
2021/12/07 14:41:13;;;;;;;;;;;5.40;84.40;;;;;;5072973;28;20323;-82
2021/12/07 14:43:41;;;;;;;;;;;5.40;84.50;;;;;;5075768;28;19924;-82
2021/12/07 14:46:10;;;;;;;;;;;5.40;84.50;;;;;;5076757;28;20296;-83
2021/12/07 14:48:39;;;;;;;;;;;5.40;84.50;;;;;;5076010;28;19943;-83
2021/12/07 14:51:08;;;;;;;;;;;5.40;84.60;;;;;;5075101;28;19920;-83
2021/12/07 14:53:37;;;;;;;;;;;5.40;84.60;;;;;;5076422;28;19920;-83
2021/12/07 14:56:05;;;;;;;;;;;5.40;84.60;;;;;;5055559;28;20389;-83
2021/12/07 14:58:33;;;;;;;;;;;5.40;84.70;;;;;;5077777;28;19944;-83
2021/12/07 15:01:06;;;;;;;;;;;5.40;84.70;;;;;;5076633;28;19927;-84
2021/12/07 15:03:37;;;;;;;;;;;5.40;84.80;;;;;;5072755;28;20008;-82